createdAt,value
2022-10-13T00:01:09.072Z,96120.06
2022-10-13T00:03:37.388Z,96116.94
2022-10-13T00:06:07.027Z,96114.31
2022-10-13T00:08:35.247Z,96117.72
2022-10-13T00:11:11.488Z,96125.03
2022-10-13T00:13:39.347Z,96123.41
2022-10-13T00:16:07.579Z,96128.81
2022-10-13T00:18:35.059Z,96129.16
2022-10-13T00:21:07.909Z,96127.78
2022-10-13T00:23:35.727Z,96124.09
2022-10-13T00:26:07.879Z,96135.28
2022-10-13T00:28:35.586Z,96135.53
2022-10-13T00:31:03.992Z,96131.47
2022-10-13T00:33:31.047Z,96132.75
2022-10-13T00:35:58.053Z,96134.56
2022-10-13T00:38:25.134Z,96138.63
2022-10-13T00:41:03.952Z,96137.81
2022-10-13T00:43:51.531Z,96139.31
2022-10-13T00:46:18.611Z,96137.81
2022-10-13T00:48:49.073Z,96131.34
2022-10-13T00:51:21.375Z,96135.88
2022-10-13T00:53:49.363Z,96127.00
2022-10-13T00:58:48.832Z,96121.00
2022-10-13T01:01:17.494Z,96120.66
2022-10-13T01:03:50.132Z,96130.47
2022-10-13T01:06:23.425Z,96120.09
2022-10-13T01:08:51.238Z,96122.75
2022-10-13T01:11:38.683Z,96116.06
2022-10-13T01:14:18.705Z,96120.19
2022-10-13T01:16:57.630Z,96118.03
2022-10-13T01:20:05.306Z,96124.34
2022-10-13T01:22:47.783Z,96121.84
2022-10-13T01:25:33.963Z,96119.75
2022-10-13T01:28:26.143Z,96112.81
2022-10-13T01:31:06.463Z,96108.34
2022-10-13T01:33:43.501Z,96109.16
2022-10-13T01:36:23.184Z,96111.91
2022-10-13T01:39:02.024Z,96114.31
2022-10-13T01:41:37.005Z,96115.69
2022-10-13T01:44:15.643Z,96114.31
2022-10-13T01:46:48.383Z,96107.88
2022-10-13T01:49:19.434Z,96099.22
2022-10-13T01:51:49.003Z,96097.25
2022-10-13T01:54:16.184Z,96107.06
2022-10-13T01:56:51.323Z,96100.13
2022-10-13T01:59:18.463Z,96109.50
2022-10-13T02:02:01.843Z,96103.34
2022-10-13T02:04:45.322Z,96110.56
2022-10-13T02:07:21.483Z,96110.53
2022-10-13T02:10:00.607Z,96110.97
2022-10-13T02:12:35.482Z,96105.56
2022-10-13T02:15:05.822Z,96105.28
2022-10-13T02:17:35.504Z,96106.41
2022-10-13T02:20:07.649Z,96110.41
2022-10-13T02:22:43.644Z,96112.44
2022-10-13T02:25:10.945Z,96104.13
2022-10-13T02:27:38.003Z,96097.84
2022-10-13T02:30:06.301Z,96101.22
2022-10-13T02:32:34.961Z,96100.34
2022-10-13T02:35:01.985Z,96083.38
2022-10-13T02:37:29.102Z,96088.19
2022-10-13T02:39:56.205Z,96088.69
2022-10-13T02:42:23.595Z,96094.56
2022-10-13T02:44:50.786Z,96092.94
2022-10-13T02:47:17.923Z,96091.41
2022-10-13T02:49:46.463Z,96093.00
2022-10-13T02:52:13.522Z,96093.50
2022-10-13T02:54:40.503Z,96094.31
2022-10-13T02:57:07.544Z,96093.50
2022-10-13T02:59:34.583Z,96093.81
2022-10-13T03:02:01.824Z,96095.13
2022-10-13T03:04:29.043Z,96090.53
2022-10-13T03:06:57.643Z,96091.16
2022-10-13T03:09:24.662Z,96088.81
2022-10-13T03:11:51.681Z,96085.66
2022-10-13T03:14:18.762Z,96093.13
2022-10-13T03:16:45.803Z,96089.53
2022-10-13T03:19:13.084Z,96090.41
2022-10-13T03:21:40.245Z,96085.34
2022-10-13T03:24:09.053Z,96086.91
2022-10-13T03:26:36.123Z,96081.41
2022-10-13T03:29:03.184Z,96075.25
2022-10-13T03:31:30.862Z,96080.06
2022-10-13T03:33:57.902Z,96076.63
2022-10-13T03:36:24.969Z,96072.69
2022-10-13T03:38:52.082Z,96076.78
2022-10-13T03:41:20.546Z,96087.47
2022-10-13T03:43:47.725Z,96075.41
2022-10-13T03:46:17.244Z,96080.91
2022-10-13T03:48:44.323Z,96084.22
2022-10-13T03:51:14.643Z,96089.75
2022-10-13T03:53:41.771Z,96084.53
2022-10-13T03:56:12.744Z,96087.75
2022-10-13T03:58:41.403Z,96077.94
2022-10-13T04:01:08.745Z,96082.59
2022-10-13T04:03:35.844Z,96087.34
2022-10-13T04:06:04.883Z,96084.59
2022-10-13T04:08:34.225Z,96086.03
2022-10-13T04:11:03.222Z,96084.31
2022-10-13T04:13:30.383Z,96086.03
2022-10-13T04:16:03.165Z,96083.97
2022-10-13T04:18:30.365Z,96082.69
2022-10-13T04:20:57.522Z,96080.72
2022-10-13T04:23:24.943Z,96088.34
2022-10-13T04:25:52.182Z,96088.56
2022-10-13T04:28:19.321Z,96071.75
2022-10-13T04:30:49.430Z,96071.31
2022-10-13T04:33:18.282Z,96082.63
2022-10-13T04:35:45.282Z,96084.50
2022-10-13T04:38:12.344Z,96087.16
2022-10-13T04:40:39.443Z,96084.66
2022-10-13T04:43:06.523Z,96071.22
2022-10-13T04:45:33.643Z,96068.34
2022-10-13T04:48:01.443Z,96063.53
2022-10-13T04:50:29.982Z,96077.31
2022-10-13T04:52:57.043Z,96078.78
2022-10-13T04:55:24.064Z,96076.81
2022-10-13T04:57:51.343Z,96080.78
2022-10-13T05:00:18.663Z,96073.97
2022-10-13T05:02:46.283Z,96072.56
2022-10-13T05:05:13.343Z,96070.56
2022-10-13T05:07:41.884Z,96062.03
2022-10-13T05:10:09.824Z,96065.00
2022-10-13T05:12:37.062Z,96076.31
2022-10-13T05:15:04.824Z,96083.47
2022-10-13T05:17:35.241Z,96079.66
2022-10-13T05:20:02.926Z,96075.03
2022-10-13T05:22:29.963Z,96069.75
2022-10-13T05:24:58.465Z,96069.75
2022-10-13T05:27:25.524Z,96071.34
2022-10-13T05:29:52.692Z,96075.28
2022-10-13T05:32:19.933Z,96065.84
2022-10-13T05:34:48.145Z,96063.34
2022-10-13T05:37:15.283Z,96063.34
2022-10-13T05:39:42.485Z,96056.84
2022-10-13T05:42:11.284Z,96053.31
2022-10-13T05:44:38.409Z,96059.97
2022-10-13T05:47:07.690Z,96056.84
2022-10-13T05:49:34.925Z,96059.75
2022-10-13T05:52:06.705Z,96073.22
2022-10-13T05:54:40.304Z,96064.25
2022-10-13T05:57:15.944Z,96068.94
2022-10-13T05:59:49.117Z,96070.63
2022-10-13T06:02:20.449Z,96064.44
2022-10-13T06:04:51.906Z,96062.72
2022-10-13T06:07:19.864Z,96052.34
2022-10-13T06:09:47.425Z,96056.28
2022-10-13T06:12:16.004Z,96055.47
2022-10-13T06:14:43.085Z,96056.16
2022-10-13T06:17:10.144Z,96055.78
2022-10-13T06:19:37.202Z,96060.69
2022-10-13T06:22:04.283Z,96068.16
2022-10-13T06:24:31.383Z,96068.50
2022-10-13T06:26:58.544Z,96072.81
2022-10-13T06:29:27.087Z,96077.75
2022-10-13T06:31:54.205Z,96078.69
2022-10-13T06:34:21.208Z,96080.88
2022-10-13T06:36:48.264Z,96068.53
2022-10-13T06:39:15.344Z,96069.22
2022-10-13T06:41:42.424Z,96063.34
2022-10-13T06:44:09.585Z,96055.84
2022-10-13T06:46:38.184Z,96058.44
2022-10-13T06:49:05.203Z,96060.53
2022-10-13T06:51:32.584Z,96062.03
2022-10-13T06:53:59.643Z,96057.34
2022-10-13T06:56:26.745Z,96067.97
2022-10-13T06:58:53.826Z,96064.75
2022-10-13T07:01:21.105Z,96066.13
2022-10-13T07:03:51.306Z,96064.19
2022-10-13T07:06:19.243Z,96072.72
2022-10-13T07:08:46.378Z,96068.09
2022-10-13T07:11:16.114Z,96068.97
2022-10-13T07:13:46.669Z,96075.56
2022-10-13T07:16:14.988Z,96063.09
2022-10-13T07:18:42.564Z,96064.13
2022-10-13T07:21:11.187Z,96059.94
2022-10-13T07:23:38.304Z,96050.63
2022-10-13T07:26:08.085Z,96047.63
2022-10-13T07:28:35.255Z,96053.28
2022-10-13T07:31:07.852Z,96046.22
2022-10-13T07:33:35.124Z,96046.22
2022-10-13T07:36:02.167Z,96051.75
2022-10-13T07:38:30.746Z,96056.91
2022-10-13T07:41:01.077Z,96055.88
2022-10-13T07:43:28.503Z,96049.19
2022-10-13T07:45:55.665Z,96045.38
2022-10-13T07:50:54.706Z,96049.00
2022-10-13T07:53:22.008Z,96053.91
2022-10-13T07:55:50.904Z,96047.72
2022-10-13T07:58:17.984Z,96041.94
2022-10-13T08:00:45.148Z,96037.16
2022-10-13T08:03:12.246Z,96046.25
2022-10-13T08:05:39.364Z,96042.38
2022-10-13T08:08:06.482Z,96047.94
2022-10-13T08:10:33.564Z,96041.78
2022-10-13T08:13:02.044Z,96041.03
2022-10-13T08:15:29.083Z,96039.75
2022-10-13T08:17:56.144Z,96041.84
2022-10-13T08:20:23.429Z,96043.06
2022-10-13T08:22:51.663Z,96040.00
2022-10-13T08:25:18.705Z,96056.94
2022-10-13T08:27:50.946Z,96055.50
2022-10-13T08:30:20.605Z,96062.59
2022-10-13T08:32:47.807Z,96060.34
2022-10-13T08:35:14.950Z,96056.00
2022-10-13T08:37:42.104Z,96060.81
2022-10-13T08:40:14.203Z,96061.06
2022-10-13T08:42:44.103Z,96053.97
2022-10-13T08:45:41.420Z,96052.41
2022-10-13T08:48:15.823Z,96052.06
2022-10-13T08:50:46.967Z,96053.13
2022-10-13T08:53:25.084Z,96042.16
2022-10-13T08:55:58.103Z,96026.97
2022-10-13T08:58:28.623Z,96025.69
2022-10-13T09:01:10.283Z,96025.72
2022-10-13T09:03:48.205Z,96035.75
2022-10-13T09:06:20.107Z,96039.16
2022-10-13T09:08:53.428Z,96040.84
2022-10-13T09:11:21.347Z,96035.38
2022-10-13T09:13:48.624Z,96046.47
2022-10-13T09:16:26.943Z,96042.44
2022-10-13T09:18:53.993Z,96043.38
2022-10-13T09:21:25.106Z,96045.06
2022-10-13T09:23:53.353Z,96050.63
2022-10-13T09:26:23.830Z,96051.66
2022-10-13T09:28:52.112Z,96049.31
2022-10-13T09:31:25.467Z,96052.88
2022-10-13T09:34:00.551Z,96053.91
2022-10-13T09:36:28.093Z,96052.44
2022-10-13T09:39:15.125Z,96045.25
2022-10-13T09:41:44.009Z,96048.59
2022-10-13T09:44:14.825Z,96048.84
2022-10-13T09:46:52.154Z,96045.63
2022-10-13T09:49:35.104Z,96038.88
2022-10-13T09:52:06.386Z,96039.84
2022-10-13T09:54:45.974Z,96048.13
2022-10-13T09:57:24.283Z,96044.56
2022-10-13T09:59:53.319Z,96045.56
2022-10-13T10:02:33.330Z,96038.00
2022-10-13T10:05:07.093Z,96034.66
2022-10-13T10:07:34.263Z,96037.72
2022-10-13T10:10:05.503Z,96033.88
2022-10-13T10:12:41.903Z,96032.88
2022-10-13T10:15:20.745Z,96028.56
2022-10-13T10:17:55.992Z,96022.41
2022-10-13T10:20:54.462Z,96018.91
2022-10-13T10:23:34.166Z,96016.38
2022-10-13T10:26:10.283Z,96015.94
2022-10-13T10:28:57.134Z,96015.94
2022-10-13T10:31:53.205Z,96016.19
2022-10-13T10:34:37.288Z,96003.06
2022-10-13T10:37:21.197Z,96006.53
2022-10-13T10:40:03.902Z,96013.38
2022-10-13T10:43:18.364Z,96009.06
2022-10-13T10:45:48.393Z,95999.00
2022-10-13T10:48:23.200Z,95984.88
2022-10-13T10:50:53.564Z,95993.34
2022-10-13T10:53:34.225Z,96000.66
2022-10-13T10:56:09.950Z,96004.78
2022-10-13T10:58:48.365Z,95997.91
2022-10-13T11:01:30.865Z,95994.22
2022-10-13T11:04:35.590Z,95984.72
2022-10-13T11:07:05.345Z,95986.44
2022-10-13T11:10:09.587Z,95993.53
2022-10-13T11:13:24.928Z,95985.38
2022-10-13T11:15:52.325Z,95991.88
2022-10-13T11:18:57.110Z,95987.56
2022-10-13T11:21:24.249Z,95989.66
2022-10-13T11:23:52.746Z,95993.44
2022-10-13T11:26:40.525Z,95972.16
2022-10-13T11:29:18.070Z,95966.03
2022-10-13T11:31:50.805Z,95972.72
2022-10-13T11:34:29.982Z,95970.06
2022-10-13T11:36:59.906Z,95962.19
2022-10-13T11:40:14.507Z,95957.44
2022-10-13T11:43:29.066Z,95948.19
2022-10-13T11:46:22.920Z,95938.59
2022-10-13T11:49:31.627Z,95944.59
2022-10-13T11:52:26.913Z,95947.78
2022-10-13T11:55:01.948Z,95949.34
2022-10-13T11:57:29.058Z,95942.53
2022-10-13T11:59:57.248Z,95935.13
2022-10-13T12:02:27.731Z,95929.47
2022-10-13T12:05:04.049Z,95920.91
2022-10-13T12:07:35.531Z,95908.63
2022-10-13T12:10:07.443Z,95923.78
2022-10-13T12:12:35.109Z,95929.13
2022-10-13T12:15:05.971Z,95927.53
2022-10-13T12:17:35.809Z,95919.31
2022-10-13T12:20:21.049Z,95914.72
2022-10-13T12:22:48.446Z,95919.53
2022-10-13T12:25:17.606Z,95910.06
2022-10-13T12:27:48.686Z,95904.75
2022-10-13T12:30:24.709Z,95897.75
2022-10-13T12:32:55.966Z,95879.75
2022-10-13T12:35:26.473Z,95880.94
2022-10-13T12:37:55.507Z,95875.31
2022-10-13T12:40:24.504Z,95874.91
2022-10-13T12:42:52.268Z,95876.22
2022-10-13T12:45:23.328Z,95877.09
2022-10-13T12:47:54.067Z,95878.53
2022-10-13T12:50:23.546Z,95876.59
2022-10-13T12:52:53.865Z,95873.25
2022-10-13T12:55:23.565Z,95872.06
2022-10-13T12:57:52.327Z,95862.31
2022-10-13T13:00:24.286Z,95873.09
2022-10-13T13:02:55.906Z,95885.44
2022-10-13T13:05:30.965Z,95894.16
2022-10-13T13:07:58.987Z,95889.75
2022-10-13T13:10:26.147Z,95884.94
2022-10-13T13:12:54.947Z,95891.56
2022-10-13T13:15:37.255Z,95890.72
2022-10-13T13:18:31.629Z,95885.56
2022-10-13T13:20:59.046Z,95890.88
2022-10-13T13:23:26.079Z,95896.69
2022-10-13T13:26:13.876Z,95894.09
2022-10-13T13:28:45.538Z,95884.50
2022-10-13T13:31:14.351Z,95871.81
2022-10-13T13:33:43.151Z,95869.16
2022-10-13T13:36:15.949Z,95870.28
2022-10-13T13:38:43.348Z,95861.00
2022-10-13T13:41:11.308Z,95850.47
2022-10-13T13:43:38.465Z,95851.38
2022-10-13T13:46:07.466Z,95855.31
2022-10-13T13:48:34.565Z,95846.78
2022-10-13T13:51:03.148Z,95844.28
2022-10-13T13:53:30.185Z,95834.38
2022-10-13T13:55:57.370Z,95832.84
2022-10-13T13:58:24.506Z,95827.03
2022-10-13T14:00:51.568Z,95818.75
2022-10-13T14:03:19.583Z,95817.41
2022-10-13T14:05:46.710Z,95826.97
2022-10-13T14:08:15.269Z,95829.34
2022-10-13T14:10:42.325Z,95830.97
2022-10-13T14:13:09.348Z,95827.75
2022-10-13T14:15:36.387Z,95826.66
2022-10-13T14:18:03.648Z,95823.19
2022-10-13T14:20:30.666Z,95826.88
2022-10-13T14:22:57.766Z,95831.34
2022-10-13T14:25:26.352Z,95824.38
2022-10-13T14:27:53.427Z,95818.25
2022-10-13T14:30:20.702Z,95819.25
2022-10-13T14:32:47.805Z,95808.34
2022-10-13T14:35:14.948Z,95808.81
2022-10-13T14:37:41.993Z,95813.59
2022-10-13T14:40:10.105Z,95808.75
2022-10-13T14:42:38.951Z,95805.31
2022-10-13T14:45:07.152Z,95807.16
2022-10-13T14:47:34.345Z,95797.56
2022-10-13T14:50:01.446Z,95801.44
2022-10-13T14:52:28.505Z,95804.00
2022-10-13T14:54:55.587Z,95810.09
2022-10-13T14:57:23.063Z,95808.72
2022-10-13T14:59:51.970Z,95814.28
2022-10-13T15:02:19.132Z,95818.00
2022-10-13T15:04:46.186Z,95821.72
2022-10-13T15:07:13.248Z,95821.72
2022-10-13T15:09:53.128Z,95810.28
2022-10-13T15:12:27.426Z,95808.66
2022-10-13T15:14:56.033Z,95808.34
2022-10-13T15:17:23.127Z,95809.47
2022-10-13T15:19:50.166Z,95803.09
2022-10-13T15:22:17.421Z,95807.53
2022-10-13T15:24:44.488Z,95808.34
2022-10-13T15:27:11.626Z,95805.44
2022-10-13T15:29:38.791Z,95808.66
2022-10-13T15:32:12.987Z,95810.75
2022-10-13T15:34:40.232Z,95807.25
2022-10-13T15:37:07.306Z,95796.31
2022-10-13T15:39:34.588Z,95806.25
2022-10-13T15:42:01.969Z,95807.41
2022-10-13T15:44:40.300Z,95806.59
2022-10-13T15:47:18.287Z,95805.16
2022-10-13T15:49:45.388Z,95811.91
2022-10-13T15:52:12.647Z,95815.97
2022-10-13T15:54:40.067Z,95814.69
2022-10-13T15:57:07.206Z,95816.31
2022-10-13T15:59:34.226Z,95821.97
2022-10-13T16:02:01.267Z,95818.50
2022-10-13T16:04:34.798Z,95816.66
2022-10-13T16:07:04.513Z,95816.34
2022-10-13T16:09:31.689Z,95812.94
2022-10-13T16:11:58.787Z,95814.84
2022-10-13T16:14:25.949Z,95814.47
2022-10-13T16:16:53.064Z,95815.13
2022-10-13T16:19:20.425Z,95817.13
2022-10-13T16:21:48.969Z,95820.72
2022-10-13T16:24:16.097Z,95826.69
2022-10-13T16:26:43.287Z,95823.19
2022-10-13T16:29:10.388Z,95817.84
2022-10-13T16:31:37.608Z,95810.06
2022-10-13T16:34:04.706Z,95823.25
2022-10-13T16:36:32.066Z,95825.13
2022-10-13T16:39:00.627Z,95825.88
2022-10-13T16:41:27.747Z,95824.03
2022-10-13T16:43:55.548Z,95820.00
2022-10-13T16:46:22.686Z,95822.91
2022-10-13T16:48:49.806Z,95817.03
2022-10-13T16:51:19.288Z,95819.41
2022-10-13T16:53:49.008Z,95815.69
2022-10-13T16:56:18.026Z,95827.13
2022-10-13T16:58:45.119Z,95820.44
2022-10-13T17:01:13.403Z,95825.28
2022-10-13T17:03:44.221Z,95830.38
2022-10-13T17:06:12.926Z,95832.47
2022-10-13T17:08:40.348Z,95840.44
2022-10-13T17:11:08.166Z,95835.09
2022-10-13T17:13:36.787Z,95830.59
2022-10-13T17:16:04.387Z,95833.47
2022-10-13T17:18:31.568Z,95830.75
2022-10-13T17:21:01.308Z,95832.91
2022-10-13T17:23:30.511Z,95833.78
2022-10-13T17:26:01.945Z,95831.88
2022-10-13T17:28:29.240Z,95838.44
2022-10-13T17:31:00.666Z,95829.00
2022-10-13T17:33:28.404Z,95828.94
2022-10-13T17:35:59.965Z,95826.28
2022-10-13T17:38:27.466Z,95832.06
2022-10-13T17:40:59.818Z,95836.81
2022-10-13T17:43:27.403Z,95840.47
2022-10-13T17:45:54.608Z,95845.78
2022-10-13T17:48:23.333Z,95845.44
2022-10-13T17:50:50.445Z,95837.19
2022-10-13T17:53:17.598Z,95851.72
2022-10-13T17:55:44.727Z,95853.28
2022-10-13T17:58:11.790Z,95855.63
2022-10-13T18:01:07.636Z,95853.69
2022-10-13T18:03:27.545Z,95856.59
2022-10-13T18:05:54.667Z,95856.03
2022-10-13T18:08:21.685Z,95855.31
2022-10-13T18:11:07.941Z,95854.59
2022-10-13T18:13:36.285Z,95857.72
2022-10-13T18:16:05.307Z,95847.59
2022-10-13T18:18:33.936Z,95850.25
2022-10-13T18:21:02.667Z,95844.94
2022-10-13T18:23:30.944Z,95845.16
2022-10-13T18:26:01.045Z,95847.25
2022-10-13T18:28:29.907Z,95848.63
2022-10-13T18:31:02.986Z,95849.44
2022-10-13T18:33:30.205Z,95851.38
2022-10-13T18:35:58.904Z,95843.41
2022-10-13T18:38:26.483Z,95848.22
2022-10-13T18:40:54.045Z,95844.28
2022-10-13T18:43:21.103Z,95845.88
2022-10-13T18:45:58.765Z,95841.38
2022-10-13T18:48:26.023Z,95847.53
2022-10-13T18:50:53.144Z,95844.88
2022-10-13T18:53:21.733Z,95844.97
2022-10-13T18:55:48.786Z,95851.56
2022-10-13T18:58:15.847Z,95850.75
2022-10-13T19:00:42.994Z,95846.00
2022-10-13T19:03:10.047Z,95848.97
2022-10-13T19:05:37.944Z,95849.47
2022-10-13T19:08:05.445Z,95841.00
2022-10-13T19:10:33.926Z,95851.97
2022-10-13T19:13:01.026Z,95852.13
2022-10-13T19:15:28.104Z,95855.91
2022-10-13T19:17:55.144Z,95853.50
2022-10-13T19:20:22.224Z,95859.59
2022-10-13T19:22:49.268Z,95854.78
2022-10-13T19:25:16.424Z,95860.09
2022-10-13T19:27:45.186Z,95855.28
2022-10-13T19:30:13.004Z,95852.53
2022-10-13T19:32:40.455Z,95852.78
2022-10-13T19:35:07.996Z,95854.94
2022-10-13T19:37:36.348Z,95856.72
2022-10-13T19:40:04.864Z,95850.63
2022-10-13T19:42:32.864Z,95857.78
2022-10-13T19:45:02.149Z,95854.34
2022-10-13T19:47:29.616Z,95857.78
2022-10-13T19:49:58.726Z,95860.44
2022-10-13T19:52:26.564Z,95863.09
2022-10-13T19:54:55.406Z,95851.69
2022-10-13T19:57:22.941Z,95856.91
2022-10-13T19:59:50.624Z,95859.06
2022-10-13T20:02:19.187Z,95856.19
2022-10-13T20:04:46.348Z,95855.38
2022-10-13T20:07:13.664Z,95849.03
2022-10-13T20:09:40.766Z,95850.56
2022-10-13T20:12:08.266Z,95847.59
2022-10-13T20:14:36.107Z,95847.50
2022-10-13T20:17:03.607Z,95849.13
2022-10-13T20:19:32.245Z,95855.97
2022-10-13T20:21:59.577Z,95854.59
2022-10-13T20:24:26.805Z,95850.41
2022-10-13T20:26:53.944Z,95850.66
2022-10-13T20:29:21.084Z,95855.16
2022-10-13T20:31:48.165Z,95856.16
2022-10-13T20:34:15.324Z,95856.38
2022-10-13T20:36:43.784Z,95851.06
2022-10-13T20:39:12.505Z,95846.75
2022-10-13T20:41:39.767Z,95855.63
2022-10-13T20:44:07.166Z,95857.56
2022-10-13T20:46:34.593Z,95853.34
2022-10-13T20:49:11.415Z,95855.38
2022-10-13T20:51:40.405Z,95849.31
2022-10-13T20:54:09.714Z,95852.81
2022-10-13T20:56:37.287Z,95854.97
2022-10-13T20:59:07.205Z,95859.59
2022-10-13T21:01:35.388Z,95857.84
2022-10-13T21:04:02.724Z,95857.25
2022-10-13T21:06:30.264Z,95857.66
2022-10-13T21:08:57.426Z,95867.84
2022-10-13T21:11:26.045Z,95861.13
2022-10-13T21:13:53.844Z,95863.19
2022-10-13T21:16:23.484Z,95861.03
2022-10-13T21:18:51.907Z,95857.03
2022-10-13T21:21:21.845Z,95856.22
2022-10-13T21:23:58.942Z,95855.34
2022-10-13T21:26:30.731Z,95855.34
2022-10-13T21:28:57.977Z,95858.44
2022-10-13T21:31:27.605Z,95850.16
2022-10-13T21:33:59.484Z,95843.22
2022-10-13T21:36:29.524Z,95845.56
2022-10-13T21:39:06.407Z,95859.06
2022-10-13T21:41:57.786Z,95853.75
2022-10-13T21:44:25.785Z,95845.00
2022-10-13T21:46:53.644Z,95850.28
2022-10-13T21:49:20.764Z,95864.63
2022-10-13T21:51:47.805Z,95862.19
2022-10-13T21:54:14.847Z,95864.84
2022-10-13T21:56:44.165Z,95866.72
2022-10-13T21:59:12.966Z,95866.34
2022-10-13T22:01:40.166Z,95863.50
2022-10-13T22:04:07.324Z,95859.78
2022-10-13T22:06:34.689Z,95857.38
2022-10-13T22:09:04.765Z,95853.09
2022-10-13T22:11:34.706Z,95854.16
2022-10-13T22:14:04.625Z,95856.00
2022-10-13T22:16:34.123Z,95850.94
2022-10-13T22:19:01.725Z,95854.63
2022-10-13T22:21:31.244Z,95853.91
2022-10-13T22:24:01.683Z,95856.31
2022-10-13T22:26:30.825Z,95847.56
2022-10-13T22:28:58.585Z,95861.88
2022-10-13T22:31:27.964Z,95857.44
2022-10-13T22:33:55.945Z,95859.94
2022-10-13T22:36:25.445Z,95850.50
2022-10-13T22:38:56.064Z,95852.81
2022-10-13T22:41:23.705Z,95844.63
2022-10-13T22:43:52.168Z,95853.16
2022-10-13T22:46:21.783Z,95848.91
2022-10-13T22:48:50.785Z,95847.50
2022-10-13T22:51:20.393Z,95841.72
2022-10-13T22:53:48.664Z,95841.81
2022-10-13T22:56:18.145Z,95840.19
2022-10-13T22:58:49.383Z,95835.13
2022-10-13T23:01:17.465Z,95830.09
2022-10-13T23:03:47.915Z,95821.56
2022-10-13T23:06:20.284Z,95822.00
2022-10-13T23:08:47.704Z,95822.94
2022-10-13T23:11:15.543Z,95822.13
2022-10-13T23:13:42.764Z,95817.13
2022-10-13T23:16:13.503Z,95808.59
2022-10-13T23:18:40.785Z,95814.22
2022-10-13T23:21:10.982Z,95808.94
2022-10-13T23:23:39.943Z,95814.47
2022-10-13T23:26:09.104Z,95805.72
2022-10-13T23:28:36.869Z,95804.13
2022-10-13T23:31:07.083Z,95807.59
2022-10-13T23:33:35.024Z,95814.72
2022-10-13T23:36:03.643Z,95809.19
2022-10-13T23:38:32.342Z,95806.53
2022-10-13T23:41:05.864Z,95815.53
2022-10-13T23:43:32.963Z,95813.66
2022-10-13T23:46:00.344Z,95811.81
2022-10-13T23:48:28.422Z,95807.59
2022-10-13T23:50:55.943Z,95800.50
2022-10-13T23:53:23.002Z,95805.00
2022-10-13T23:55:50.123Z,95799.44
2022-10-13T23:58:18.583Z,95798.66
